createdAt,value
2022-12-15T00:02:04.110Z,99651.44
2022-12-15T00:04:53.913Z,99667.44
2022-12-15T00:07:44.091Z,99664.25
2022-12-15T00:10:34.203Z,99623.34
2022-12-15T00:13:32.363Z,99658.59
2022-12-15T00:16:23.981Z,99665.50
2022-12-15T00:19:13.783Z,99665.13
2022-12-15T00:22:03.483Z,99599.66
2022-12-15T00:24:53.301Z,99649.19
2022-12-15T00:27:43.395Z,99679.97
2022-12-15T00:30:33.245Z,99652.56
2022-12-15T00:33:30.866Z,99653.84
2022-12-15T00:36:21.283Z,99650.47
2022-12-15T00:38:52.594Z,99668.50
2022-12-15T00:41:23.881Z,99670.47
2022-12-15T00:43:55.147Z,99661.06
2022-12-15T00:46:44.943Z,99676.34
2022-12-15T00:49:35.111Z,99671.41
2022-12-15T00:52:25.100Z,99671.91
2022-12-15T00:55:15.380Z,99667.16
2022-12-15T00:58:05.090Z,99669.22
2022-12-15T01:00:54.936Z,99678.03
2022-12-15T01:03:45.222Z,99674.81
2022-12-15T01:06:37.144Z,99683.69
2022-12-15T01:09:29.220Z,99677.00
2022-12-15T01:12:19.061Z,99677.97
2022-12-15T01:15:08.849Z,99682.38
2022-12-15T01:17:58.831Z,99695.41
2022-12-15T01:20:34.394Z,99588.38
2022-12-15T01:23:05.811Z,99648.00
2022-12-15T01:25:38.301Z,99676.78
2022-12-15T01:28:09.576Z,99690.81
2022-12-15T01:30:40.826Z,99674.03
2022-12-15T01:33:14.192Z,99693.91
2022-12-15T01:35:45.766Z,99695.31
2022-12-15T01:38:17.052Z,99707.28
2022-12-15T01:40:57.968Z,99709.69
2022-12-15T01:43:33.183Z,99713.75
2022-12-15T01:46:22.068Z,99692.47
2022-12-15T01:49:14.532Z,99724.56
2022-12-15T01:51:49.949Z,99712.31
2022-12-15T01:54:53.919Z,99732.75
2022-12-15T01:57:28.176Z,99738.69
2022-12-15T02:00:03.293Z,99733.34
2022-12-15T02:02:40.421Z,99703.13
2022-12-15T02:05:11.814Z,99730.41
2022-12-15T02:07:43.197Z,99733.63
2022-12-15T02:10:14.607Z,99739.53
2022-12-15T02:13:08.957Z,99733.41
2022-12-15T02:15:51.044Z,99714.97
2022-12-15T02:18:32.278Z,99710.50
2022-12-15T02:21:14.011Z,99723.50
2022-12-15T02:24:19.072Z,99741.81
2022-12-15T02:27:13.242Z,99726.00
2022-12-15T02:30:06.993Z,99742.69
2022-12-15T02:32:54.672Z,99735.94
2022-12-15T02:35:55.293Z,99756.41
2022-12-15T02:38:36.895Z,99743.16
2022-12-15T02:41:40.509Z,99745.97
2022-12-15T02:44:18.078Z,99715.41
2022-12-15T02:47:17.732Z,99751.25
2022-12-15T02:50:15.559Z,99756.41
2022-12-15T02:53:20.974Z,99758.28
2022-12-15T02:56:14.159Z,99774.91
2022-12-15T02:58:59.991Z,99735.72
2022-12-15T03:01:40.014Z,99761.78
2022-12-15T03:04:12.919Z,99754.81
2022-12-15T03:06:44.239Z,99767.94
2022-12-15T03:09:15.500Z,99761.72
2022-12-15T03:11:46.848Z,99763.59
2022-12-15T03:14:18.366Z,99763.53
2022-12-15T03:16:49.760Z,99757.44
2022-12-15T03:19:21.728Z,99758.16
2022-12-15T03:21:53.131Z,99731.69
2022-12-15T03:24:24.478Z,99749.31
2022-12-15T03:26:56.645Z,99753.63
2022-12-15T03:29:27.972Z,99731.78
2022-12-15T03:31:59.293Z,99735.69
2022-12-15T03:34:30.700Z,99743.47
2022-12-15T03:37:01.976Z,99707.69
2022-12-15T03:39:33.299Z,99722.63
2022-12-15T03:42:04.793Z,99717.41
2022-12-15T03:44:36.040Z,99764.59
2022-12-15T03:47:07.335Z,99766.47
2022-12-15T03:49:38.604Z,99731.53
2022-12-15T03:52:09.872Z,99735.78
2022-12-15T03:54:41.126Z,99762.97
2022-12-15T03:57:12.397Z,99757.00
2022-12-15T03:59:43.741Z,99753.13
2022-12-15T04:02:15.206Z,99753.13
2022-12-15T04:04:46.899Z,99753.81
2022-12-15T04:07:18.182Z,99764.47
2022-12-15T04:09:49.487Z,99743.53
2022-12-15T04:12:20.847Z,99755.06
2022-12-15T04:14:53.953Z,99729.34
2022-12-15T04:17:25.228Z,99740.94
2022-12-15T04:20:11.654Z,99744.47
2022-12-15T04:22:45.999Z,99747.03
2022-12-15T04:25:37.689Z,99778.72
2022-12-15T04:28:29.668Z,99783.22
2022-12-15T04:31:26.067Z,99787.88
2022-12-15T04:34:19.521Z,99787.22
2022-12-15T04:37:12.337Z,99761.22
2022-12-15T04:40:08.640Z,99785.69
2022-12-15T04:43:03.864Z,99789.16
2022-12-15T04:45:53.722Z,99786.53
2022-12-15T04:48:43.720Z,99803.00
2022-12-15T04:51:33.768Z,99780.31
2022-12-15T04:54:34.963Z,99792.81
2022-12-15T04:57:24.974Z,99781.19
2022-12-15T05:00:14.577Z,99801.25
2022-12-15T05:03:04.400Z,99806.31
2022-12-15T05:05:54.291Z,99801.16
2022-12-15T05:08:44.351Z,99811.34
2022-12-15T05:11:34.495Z,99789.38
2022-12-15T05:14:24.571Z,99806.06
2022-12-15T05:17:14.239Z,99807.84
2022-12-15T05:20:04.268Z,99800.09
2022-12-15T05:22:54.079Z,99800.97
2022-12-15T05:25:44.243Z,99812.22
2022-12-15T05:28:34.137Z,99814.00
2022-12-15T05:31:25.759Z,99809.09
2022-12-15T05:34:04.694Z,99811.78
2022-12-15T05:36:37.959Z,99796.94
2022-12-15T05:39:09.243Z,99811.91
2022-12-15T05:41:40.601Z,99804.94
2022-12-15T05:44:14.315Z,99787.50
2022-12-15T05:46:46.187Z,99814.66
2022-12-15T05:49:18.297Z,99808.75
2022-12-15T05:51:49.839Z,99818.34
2022-12-15T05:54:21.104Z,99826.16
2022-12-15T05:56:52.837Z,99822.69
2022-12-15T05:59:24.229Z,99822.69
2022-12-15T06:01:55.561Z,99833.00
2022-12-15T06:04:26.974Z,99801.25
2022-12-15T06:06:58.371Z,99823.97
2022-12-15T06:09:29.757Z,99830.06
2022-12-15T06:12:01.096Z,99839.69
2022-12-15T06:14:32.440Z,99847.34
2022-12-15T06:17:03.967Z,99841.06
2022-12-15T06:19:35.346Z,99845.66
2022-12-15T06:22:06.666Z,99851.56
2022-12-15T06:24:38.440Z,99845.66
2022-12-15T06:27:09.860Z,99826.44
2022-12-15T06:29:41.299Z,99838.22
2022-12-15T06:32:12.770Z,99862.19
2022-12-15T06:34:44.147Z,99866.34
2022-12-15T06:37:15.512Z,99865.56
2022-12-15T06:39:46.829Z,99852.56
2022-12-15T06:42:18.183Z,99852.56
2022-12-15T06:44:50.043Z,99870.91
2022-12-15T06:47:21.666Z,99873.47
2022-12-15T06:49:52.926Z,99877.00
2022-12-15T06:52:24.177Z,99861.34
2022-12-15T06:54:55.794Z,99877.25
2022-12-15T06:57:27.094Z,99883.28
2022-12-15T06:59:58.510Z,99859.78
2022-12-15T07:02:32.621Z,99886.19
2022-12-15T07:05:04.297Z,99899.22
2022-12-15T07:07:35.598Z,99875.84
2022-12-15T07:10:08.394Z,99859.31
2022-12-15T07:12:39.676Z,99877.66
2022-12-15T07:15:11.397Z,99873.06
2022-12-15T07:17:42.925Z,99915.03
2022-12-15T07:20:14.313Z,99884.44
2022-12-15T07:22:50.416Z,99894.06
2022-12-15T07:25:22.286Z,99919.38
2022-12-15T07:27:53.609Z,99877.88
2022-12-15T07:30:24.983Z,99920.84
2022-12-15T07:32:56.379Z,99919.31
2022-12-15T07:35:27.680Z,99939.56
2022-12-15T07:38:00.168Z,99924.66
2022-12-15T07:40:31.468Z,99946.59
2022-12-15T07:43:02.832Z,99943.25
2022-12-15T07:45:34.237Z,99934.50
2022-12-15T07:48:05.844Z,99939.31
2022-12-15T07:50:39.764Z,99938.25
2022-12-15T07:53:11.093Z,99947.34
2022-12-15T07:56:05.438Z,99955.25
2022-12-15T07:58:33.826Z,99938.59
2022-12-15T08:01:08.012Z,99954.78
2022-12-15T08:03:40.620Z,99940.47
2022-12-15T08:06:14.773Z,99949.59
2022-12-15T08:08:50.463Z,99951.34
2022-12-15T08:11:22.894Z,99963.75
2022-12-15T08:14:03.582Z,99960.19
2022-12-15T08:16:36.583Z,99968.91
2022-12-15T08:19:12.636Z,99983.28
2022-12-15T08:21:48.461Z,99958.09
2022-12-15T08:24:19.772Z,99981.22
2022-12-15T08:26:51.084Z,99984.06
2022-12-15T08:29:50.266Z,99996.47
2022-12-15T08:32:14.361Z,99998.56
2022-12-15T08:34:47.640Z,99955.13
2022-12-15T08:37:18.981Z,99981.00
2022-12-15T08:39:50.396Z,99992.59
2022-12-15T08:42:21.677Z,99993.66
2022-12-15T08:44:53.028Z,99980.50
2022-12-15T08:47:24.307Z,99982.50
2022-12-15T08:49:55.672Z,99975.75
2022-12-15T08:52:27.005Z,100003.38
2022-12-15T08:54:58.362Z,99986.41
2022-12-15T08:57:29.732Z,99985.28
2022-12-15T09:00:01.037Z,99998.31
2022-12-15T09:02:32.405Z,99986.91
2022-12-15T09:05:06.171Z,100004.03
2022-12-15T09:07:37.582Z,99992.25
2022-12-15T09:10:09.036Z,100006.63
2022-12-15T09:12:40.305Z,100006.16
2022-12-15T09:15:11.682Z,100018.75
2022-12-15T09:17:43.695Z,99995.50
2022-12-15T09:20:17.844Z,100000.38
2022-12-15T09:22:50.373Z,100007.91
2022-12-15T09:25:21.863Z,99939.00
2022-12-15T09:27:53.234Z,100013.25
2022-12-15T09:30:24.597Z,100002.91
2022-12-15T09:32:56.108Z,99988.16
2022-12-15T09:35:28.228Z,99996.13
2022-12-15T09:37:59.660Z,100009.34
2022-12-15T09:40:31.081Z,100017.16
2022-12-15T09:43:32.846Z,99998.00
2022-12-15T09:46:06.449Z,100013.97
2022-12-15T09:48:41.620Z,100006.94
2022-12-15T09:51:18.201Z,99996.63
2022-12-15T09:53:57.311Z,100010.72
2022-12-15T09:56:49.933Z,100023.84
2022-12-15T09:59:28.231Z,100025.84
2022-12-15T10:02:18.443Z,100026.16
2022-12-15T10:05:09.756Z,100027.56
2022-12-15T10:07:46.426Z,100026.28
2022-12-15T10:10:47.186Z,100030.03
2022-12-15T10:13:24.673Z,100011.75
2022-12-15T10:16:16.145Z,100003.97
2022-12-15T10:19:01.916Z,100004.06
2022-12-15T10:21:34.432Z,100025.94
2022-12-15T10:24:37.333Z,99999.84
2022-12-15T10:27:30.938Z,100027.00
2022-12-15T10:30:05.824Z,100022.72
2022-12-15T10:32:56.597Z,100020.31
2022-12-15T10:35:34.485Z,100012.56
2022-12-15T10:38:13.478Z,100013.59
2022-12-15T10:43:46.903Z,100006.78
2022-12-15T10:46:21.931Z,100010.31
2022-12-15T10:48:59.457Z,100005.19
2022-12-15T10:51:36.880Z,100003.53
2022-12-15T10:54:09.496Z,100007.94
2022-12-15T10:56:55.077Z,99979.13
2022-12-15T10:59:33.544Z,100008.91
2022-12-15T11:02:34.038Z,99988.66
2022-12-15T11:05:18.278Z,100009.75
2022-12-15T11:07:52.638Z,100021.25
2022-12-15T11:10:28.548Z,100014.34
2022-12-15T11:13:21.249Z,100026.63
2022-12-15T11:15:55.081Z,100011.88
2022-12-15T11:18:42.585Z,99963.69
2022-12-15T11:21:27.908Z,100005.81
2022-12-15T11:24:18.236Z,100000.56
2022-12-15T11:27:08.834Z,100021.63
2022-12-15T11:29:51.651Z,100020.78
2022-12-15T11:32:27.081Z,99988.34
2022-12-15T11:34:58.935Z,100029.53
2022-12-15T11:37:36.794Z,100029.53
2022-12-15T11:40:23.650Z,100003.19
2022-12-15T11:43:29.271Z,100025.03
2022-12-15T11:46:20.079Z,100031.06
2022-12-15T11:49:06.509Z,99997.63
2022-12-15T11:52:03.027Z,100032.66
2022-12-15T11:54:43.610Z,100035.34
2022-12-15T11:57:44.171Z,100040.59
2022-12-15T12:00:19.986Z,100012.69
2022-12-15T12:03:04.008Z,100031.13
2022-12-15T12:06:02.971Z,100031.13
2022-12-15T12:08:53.003Z,100026.72
2022-12-15T12:11:32.077Z,100030.25
2022-12-15T12:14:37.923Z,100032.13
2022-12-15T12:17:38.424Z,100021.69
2022-12-15T12:20:41.728Z,100044.53
2022-12-15T12:23:22.433Z,100024.44
2022-12-15T12:26:03.449Z,100046.41
2022-12-15T12:28:48.631Z,100045.53
2022-12-15T12:31:56.498Z,100050.78
2022-12-15T12:35:31.772Z,100048.16
2022-12-15T12:38:04.728Z,100032.44
2022-12-15T12:40:56.936Z,100018.47
2022-12-15T12:43:42.236Z,100032.59
2022-12-15T12:46:23.793Z,100032.66
2022-12-15T12:49:13.311Z,100020.38
2022-12-15T12:51:51.600Z,100038.69
2022-12-15T12:54:41.460Z,100046.59
2022-12-15T12:57:12.796Z,100053.63
2022-12-15T12:59:49.862Z,100043.25
2022-12-15T13:02:21.468Z,99999.53
2022-12-15T13:04:59.941Z,100045.13
2022-12-15T13:07:38.579Z,100046.91
2022-12-15T13:10:21.426Z,100024.22
2022-12-15T13:12:59.156Z,100042.63
2022-12-15T13:15:30.447Z,100042.63
2022-12-15T13:18:16.105Z,100046.97
2022-12-15T13:20:50.686Z,100039.06
2022-12-15T13:23:22.157Z,100041.59
2022-12-15T13:25:56.525Z,100038.00
2022-12-15T13:43:27.190Z,100046.22
2022-12-15T13:46:01.755Z,99996.47
2022-12-15T13:48:51.451Z,99999.22
2022-12-15T13:51:31.515Z,100027.28
2022-12-15T13:54:17.942Z,99994.88
2022-12-15T13:56:54.804Z,100035.09
2022-12-15T13:59:40.069Z,100016.69
2022-12-15T14:02:25.005Z,100034.16
2022-12-15T14:05:17.397Z,100049.78
2022-12-15T14:07:56.438Z,100008.63
2022-12-15T14:10:41.532Z,100047.09
2022-12-15T14:13:26.259Z,100054.03
2022-12-15T14:16:15.196Z,100016.28
2022-12-15T14:19:10.277Z,100030.41
2022-12-15T14:21:51.860Z,100050.56
2022-12-15T14:24:38.505Z,100035.63
2022-12-15T14:27:22.370Z,100052.28
2022-12-15T14:30:19.300Z,100051.41
2022-12-15T14:33:12.115Z,100047.00
2022-12-15T14:35:50.032Z,100012.03
2022-12-15T14:38:25.467Z,100043.59
2022-12-15T14:40:58.026Z,100046.28
2022-12-15T14:43:34.943Z,100033.16
2022-12-15T14:46:11.224Z,100049.81
2022-12-15T14:49:05.905Z,100020.84
2022-12-15T14:51:44.032Z,100047.00
2022-12-15T14:54:38.535Z,100064.34
2022-12-15T14:57:17.034Z,100067.59
2022-12-15T14:59:49.395Z,100074.47
2022-12-15T15:02:25.199Z,100073.44
2022-12-15T15:03:04.489Z,100010.22
2022-12-15T15:04:59.856Z,100033.88
2022-12-15T15:07:33.098Z,100067.00
2022-12-15T15:10:22.347Z,100074.75
2022-12-15T15:12:54.174Z,100072.03
2022-12-15T15:15:26.781Z,100054.44
2022-12-15T15:17:59.786Z,100071.94
2022-12-15T15:20:36.017Z,100078.91
2022-12-15T15:23:07.296Z,100084.06
2022-12-15T15:26:06.976Z,100034.00
2022-12-15T15:28:43.673Z,100072.38
2022-12-15T15:31:24.447Z,100036.34
2022-12-15T15:33:57.907Z,100054.56
2022-12-15T15:36:33.818Z,100075.50
2022-12-15T15:39:15.843Z,100071.81
2022-12-15T15:41:47.143Z,100082.13
2022-12-15T15:44:18.426Z,100071.44
2022-12-15T15:46:51.973Z,100077.47
2022-12-15T15:49:24.435Z,100068.56
2022-12-15T15:51:56.643Z,100073.66
2022-12-15T15:54:35.202Z,100060.34
2022-12-15T15:57:06.533Z,100064.69
2022-12-15T15:59:42.056Z,100082.00
2022-12-15T16:02:14.456Z,99980.22
2022-12-15T16:04:45.954Z,100074.69
2022-12-15T16:07:25.513Z,100064.94
2022-12-15T16:09:56.956Z,100058.59
2022-12-15T16:12:35.765Z,100088.34
2022-12-15T16:15:18.443Z,100034.81
2022-12-15T16:17:49.952Z,100024.94
2022-12-15T16:20:23.554Z,100035.47
2022-12-15T16:22:59.164Z,100068.66
2022-12-15T16:25:50.297Z,100028.13
2022-12-15T16:28:25.102Z,100085.78
2022-12-15T16:30:58.593Z,100053.16
2022-12-15T16:33:30.041Z,100077.72
2022-12-15T16:36:01.974Z,100085.53
2022-12-15T16:38:33.827Z,100082.75
2022-12-15T16:41:07.938Z,100051.06
2022-12-15T16:43:44.522Z,100086.13
2022-12-15T16:46:20.142Z,100077.97
2022-12-15T16:48:51.846Z,100063.84
2022-12-15T16:51:39.408Z,100093.56
2022-12-15T16:54:20.767Z,100094.25
2022-12-15T16:56:54.064Z,100093.16
2022-12-15T16:59:35.077Z,100096.44
2022-12-15T17:02:35.826Z,100105.16
2022-12-15T17:05:07.709Z,100058.38
2022-12-15T17:07:40.696Z,100102.94
2022-12-15T17:10:25.569Z,100094.06
2022-12-15T17:13:05.838Z,100108.09
2022-12-15T17:15:39.835Z,100108.88
2022-12-15T17:18:15.277Z,100117.69
2022-12-15T17:20:46.925Z,100100.09
2022-12-15T17:23:22.466Z,100116.81
2022-12-15T17:26:21.054Z,100115.84
2022-12-15T17:28:45.266Z,100115.72
2022-12-15T17:31:18.984Z,100122.84
2022-12-15T17:33:50.805Z,100072.91
2022-12-15T17:36:25.072Z,100112.31
2022-12-15T17:38:58.431Z,100111.44
2022-12-15T17:44:36.904Z,100058.59
2022-12-15T17:47:09.564Z,100120.03
2022-12-15T17:49:41.425Z,100112.97
2022-12-15T17:52:34.702Z,100091.84
2022-12-15T17:55:31.790Z,100134.72
2022-12-15T17:58:16.899Z,100141.63
2022-12-15T18:00:52.888Z,100132.78
2022-12-15T18:03:28.151Z,100141.41
2022-12-15T18:05:59.573Z,100117.41
2022-12-15T18:08:33.670Z,100142.97
2022-12-15T18:11:05.177Z,100138.41
2022-12-15T18:13:37.042Z,100129.72
2022-12-15T18:16:08.661Z,100111.25
2022-12-15T18:18:39.984Z,100142.00
2022-12-15T18:21:16.509Z,100110.28
2022-12-15T18:23:47.858Z,100159.16
2022-12-15T18:26:19.260Z,100143.41
2022-12-15T18:28:50.585Z,100148.69
2022-12-15T18:31:27.131Z,100143.31
2022-12-15T18:34:04.292Z,100138.06
2022-12-15T18:36:36.341Z,100147.59
2022-12-15T18:39:18.547Z,100142.19
2022-12-15T18:41:50.728Z,100149.81
2022-12-15T18:44:25.240Z,100164.69
2022-12-15T18:46:56.799Z,100169.09
2022-12-15T18:49:28.281Z,100159.22
2022-12-15T18:51:59.572Z,100185.38
2022-12-15T18:54:30.906Z,100171.34
2022-12-15T18:57:02.254Z,100154.59
2022-12-15T18:59:33.671Z,100191.50
2022-12-15T19:02:05.063Z,100183.47
2022-12-15T19:04:36.479Z,100175.47
2022-12-15T19:07:11.131Z,100190.28
2022-12-15T19:09:42.483Z,100198.94
2022-12-15T19:12:17.648Z,100205.91
2022-12-15T19:14:51.227Z,100209.38
2022-12-15T19:17:42.448Z,100212.88
2022-12-15T19:20:37.469Z,100212.88
2022-12-15T19:23:08.791Z,100213.53
2022-12-15T19:25:41.593Z,100226.78
2022-12-15T19:28:19.521Z,100229.28
2022-12-15T19:30:52.049Z,100222.13
2022-12-15T19:33:24.136Z,100244.75
2022-12-15T19:35:57.356Z,100234.28
2022-12-15T19:38:31.948Z,100200.78
2022-12-15T19:41:03.684Z,100247.22
2022-12-15T19:43:35.751Z,100241.13
2022-12-15T19:46:17.972Z,100228.69
2022-12-15T19:48:49.451Z,100243.72
2022-12-15T19:51:24.094Z,100238.19
2022-12-15T19:53:56.423Z,100219.66
2022-12-15T19:56:29.137Z,100218.63
2022-12-15T19:59:01.475Z,100256.28
2022-12-15T20:01:33.034Z,100253.69
2022-12-15T20:04:05.674Z,100266.75
2022-12-15T20:06:38.415Z,100249.91
2022-12-15T20:09:15.329Z,100250.84
2022-12-15T20:11:46.906Z,100209.47
2022-12-15T20:14:18.316Z,100266.75
2022-12-15T20:16:52.547Z,100259.22
2022-12-15T20:19:23.971Z,100267.13
2022-12-15T20:21:55.354Z,100269.78
2022-12-15T20:24:27.097Z,100243.56
2022-12-15T20:26:58.876Z,100255.00
2022-12-15T20:29:31.869Z,100236.63
2022-12-15T20:32:12.526Z,100283.19
2022-12-15T20:34:44.123Z,100255.09
2022-12-15T20:37:28.977Z,100260.69
2022-12-15T20:40:00.543Z,100273.97
2022-12-15T20:42:32.923Z,100273.28
2022-12-15T20:45:04.906Z,100256.63
2022-12-15T20:47:39.782Z,100275.16
2022-12-15T20:50:41.166Z,100280.56
2022-12-15T20:53:21.258Z,100283.44
2022-12-15T20:55:54.104Z,100267.88
2022-12-15T20:58:31.295Z,100277.94
2022-12-15T21:01:16.814Z,100257.13
2022-12-15T21:03:51.957Z,100272.19
2022-12-15T21:06:25.236Z,100247.63
2022-12-15T21:08:56.902Z,100262.69
2022-12-15T21:11:32.614Z,100270.59
2022-12-15T21:14:04.050Z,100275.03
2022-12-15T21:16:35.547Z,100269.88
2022-12-15T21:19:23.118Z,100270.16
2022-12-15T21:21:55.403Z,100266.00
2022-12-15T21:24:28.563Z,100156.34
2022-12-15T21:27:01.438Z,100257.56
2022-12-15T21:29:34.159Z,100220.50
2022-12-15T21:32:05.651Z,100266.72
2022-12-15T21:34:37.427Z,100256.78
2022-12-15T21:37:23.574Z,100260.00
2022-12-15T21:39:55.607Z,100252.50
2022-12-15T21:42:27.222Z,100253.09
2022-12-15T21:44:58.614Z,100258.94
2022-12-15T21:47:52.032Z,100250.88
2022-12-15T21:50:23.927Z,100259.22
2022-12-15T21:52:55.909Z,100271.94
2022-12-15T21:55:28.487Z,100262.00
2022-12-15T21:57:59.874Z,100272.13
2022-12-15T22:00:31.239Z,100248.00
2022-12-15T22:03:02.698Z,100259.31
2022-12-15T22:05:34.164Z,100276.81
2022-12-15T22:08:35.247Z,100291.00
2022-12-15T22:11:19.743Z,100273.88
2022-12-15T22:13:53.173Z,100287.94
2022-12-15T22:16:27.240Z,100250.84
2022-12-15T22:19:00.826Z,100290.31
2022-12-15T22:21:32.215Z,100297.41
2022-12-15T22:24:03.714Z,100287.97
2022-12-15T22:26:37.528Z,100297.09
2022-12-15T22:29:15.555Z,100204.72
2022-12-15T22:31:48.473Z,100306.19
2022-12-15T22:34:22.853Z,100315.00
2022-12-15T22:36:55.032Z,100315.91
2022-12-15T22:39:26.624Z,100300.41
2022-12-15T22:41:58.752Z,100313.84
2022-12-15T22:44:37.157Z,100315.94
2022-12-15T22:47:10.599Z,100301.16
2022-12-15T22:49:42.509Z,100323.28
2022-12-15T22:52:18.611Z,100317.38
2022-12-15T22:54:50.122Z,100327.09
2022-12-15T22:57:27.050Z,100306.25
2022-12-15T23:00:03.071Z,100322.34
2022-12-15T23:02:38.841Z,100318.16
2022-12-15T23:05:12.789Z,100322.78
2022-12-15T23:07:45.157Z,100310.63
2022-12-15T23:10:37.320Z,100303.72
2022-12-15T23:13:08.700Z,100329.41
2022-12-15T23:15:58.796Z,100321.63
2022-12-15T23:18:30.358Z,100342.66
2022-12-15T23:21:02.490Z,100335.94
2022-12-15T23:23:34.312Z,100337.84
2022-12-15T23:26:06.082Z,100304.66
2022-12-15T23:28:37.994Z,100327.53
2022-12-15T23:31:10.102Z,100316.25
2022-12-15T23:33:41.731Z,100329.59
2022-12-15T23:36:13.443Z,100327.16
2022-12-15T23:38:44.913Z,100295.50
2022-12-15T23:41:17.634Z,100316.69
2022-12-15T23:43:49.096Z,100328.13
2022-12-15T23:46:21.182Z,100319.44
2022-12-15T23:48:52.589Z,100340.47
2022-12-15T23:51:26.528Z,100336.13
2022-12-15T23:53:57.908Z,100336.16
2022-12-15T23:56:30.331Z,100340.63
2022-12-15T23:59:01.806Z,100338.16
